Terminal Aerodrome Forecast
Issued by NWS

Home | Current Version | Previous Version | Graphics & Text | Print | Product List | Glossary On
Versions: 1 2 3 4 5 6 7 8 9 10 11 12 13 14 15 16 17 18 19 20 21 22 23 24 25
000
FTUS43 KABR 180500 CCA
TAFMBG
TAF COR
KMBG 180543Z 1806/1906 16008KT P6SM OVC009
     FM180800 16008KT P6SM OVC008
     FM181700 17008KT P6SM BKN010 OVC070=

USA.gov is the U.S. government's official web portal to all federal, state and local government web resources and services.